createdAt,value
2018-09-24T00:00:23.837Z,98767.93
2018-09-24T00:02:52.022Z,98771.48
2018-09-24T00:05:20.326Z,98774.99
2018-09-24T00:07:48.608Z,98782.30
2018-09-24T00:10:16.892Z,98795.34
2018-09-24T00:12:45.186Z,98795.58
2018-09-24T00:15:13.471Z,98800.05
2018-09-24T00:17:41.768Z,98807.50
2018-09-24T00:20:10.043Z,98808.19
2018-09-24T00:22:38.342Z,98818.11
2018-09-24T00:25:06.631Z,98824.15
2018-09-24T00:27:34.914Z,98827.84
2018-09-24T00:30:03.209Z,98841.80
2018-09-24T00:32:31.495Z,98835.48
2018-09-24T00:34:59.782Z,98850.92
2018-09-24T00:37:28.066Z,98854.48
2018-09-24T00:39:56.362Z,98859.28
2018-09-24T00:42:24.646Z,98869.98
2018-09-24T00:44:52.930Z,98874.91
2018-09-24T00:47:21.230Z,98888.42
2018-09-24T00:49:49.510Z,98879.20
2018-09-24T00:52:17.803Z,98884.10
2018-09-24T00:54:46.090Z,98887.62
2018-09-24T00:57:14.387Z,98893.94
2018-09-24T00:59:42.667Z,98902.87
2018-09-24T01:02:10.950Z,98897.77
2018-09-24T01:04:39.243Z,98907.17
2018-09-24T01:07:07.523Z,98901.84
2018-09-24T01:09:35.815Z,98910.96
2018-09-24T01:12:04.099Z,98915.81
2018-09-24T01:14:32.409Z,98914.14
2018-09-24T01:17:00.695Z,98912.01
2018-09-24T01:19:28.982Z,98923.36
2018-09-24T01:21:57.278Z,98925.59
2018-09-24T01:24:25.573Z,98924.69
2018-09-24T01:26:53.858Z,98933.59
2018-09-24T01:29:22.138Z,98931.22
2018-09-24T01:31:50.442Z,98941.28
2018-09-24T01:34:18.721Z,98943.19
2018-09-24T01:36:47.003Z,98945.61
2018-09-24T01:39:15.296Z,98942.11
2018-09-24T01:41:43.594Z,98944.48
2018-09-24T01:44:11.882Z,98942.72
2018-09-24T01:46:40.158Z,98942.14
2018-09-24T01:49:08.467Z,98948.67
2018-09-24T01:51:36.742Z,98951.54
2018-09-24T01:54:05.031Z,98957.66
2018-09-24T01:56:33.319Z,98961.19
2018-09-24T01:59:01.609Z,98963.62
2018-09-24T02:01:29.906Z,98957.58
2018-09-24T02:03:58.186Z,98960.31
2018-09-24T02:06:26.487Z,98953.86
2018-09-24T02:08:54.777Z,98961.52
2018-09-24T02:11:23.058Z,98959.41
2018-09-24T02:13:51.354Z,98963.39
2018-09-24T02:16:19.637Z,98965.33
2018-09-24T02:18:47.948Z,98965.58
2018-09-24T02:21:16.216Z,98970.28
2018-09-24T02:23:44.502Z,98970.48
2018-09-24T02:26:12.802Z,98972.63
2018-09-24T02:28:41.075Z,98971.64
2018-09-24T02:31:09.358Z,98981.10
2018-09-24T02:33:37.640Z,98984.06
2018-09-24T02:36:05.938Z,98992.72
2018-09-24T02:38:34.223Z,98990.66
2018-09-24T02:41:02.518Z,98990.34
2018-09-24T02:43:30.812Z,98990.41
2018-09-24T02:45:59.102Z,98993.14
2018-09-24T02:48:28.003Z,98996.22
2018-09-24T02:50:56.307Z,98999.27
2018-09-24T02:53:24.588Z,99000.58
2018-09-24T02:55:52.873Z,99007.44
2018-09-24T02:58:21.166Z,99008.61
2018-09-24T03:00:49.455Z,99013.83
2018-09-24T03:03:17.738Z,99014.45
2018-09-24T03:05:46.041Z,99018.73
2018-09-24T03:08:14.328Z,99024.07
2018-09-24T03:10:42.616Z,99040.87
2018-09-24T03:13:10.907Z,99043.84
2018-09-24T03:15:39.189Z,99038.72
2018-09-24T03:18:07.492Z,99040.52
2018-09-24T03:20:35.782Z,99049.27
2018-09-24T03:23:04.076Z,99051.62
2018-09-24T03:25:32.362Z,99057.78
2018-09-24T03:28:00.659Z,99061.43
2018-09-24T03:30:28.940Z,99066.41
2018-09-24T03:32:57.267Z,99072.14
2018-09-24T03:35:25.535Z,99072.02
2018-09-24T03:37:53.823Z,99072.70
2018-09-24T03:40:22.128Z,99083.23
2018-09-24T03:42:50.414Z,99084.64
2018-09-24T03:45:18.703Z,99087.64
2018-09-24T03:47:46.983Z,99088.02
2018-09-24T03:50:15.279Z,99086.34
2018-09-24T03:52:43.564Z,99092.55
2018-09-24T03:55:11.843Z,99091.31
2018-09-24T03:57:40.127Z,99088.61
2018-09-24T04:00:08.405Z,99094.97
2018-09-24T04:02:39.378Z,99098.64
2018-09-24T04:05:13.239Z,99099.49
2018-09-24T04:07:47.208Z,99099.58
2018-09-24T04:10:21.019Z,99112.97
2018-09-24T04:12:55.042Z,99114.79
2018-09-24T04:15:29.051Z,99122.73
2018-09-24T04:18:02.870Z,99140.39
2018-09-24T04:20:36.909Z,99140.11
2018-09-24T04:23:10.779Z,99145.83
2018-09-24T04:25:44.621Z,99153.58
2018-09-24T04:28:18.664Z,99150.09
2018-09-24T04:30:52.566Z,99160.90
2018-09-24T04:33:26.597Z,99158.62
2018-09-24T04:36:00.575Z,99165.84
2018-09-24T04:38:34.479Z,99171.61
2018-09-24T04:41:08.408Z,99178.78
2018-09-24T04:43:42.281Z,99179.62
2018-09-24T04:46:16.363Z,99187.44
2018-09-24T04:48:50.085Z,99192.00
2018-09-24T04:51:24.004Z,99190.39
2018-09-24T04:53:57.802Z,99189.36
2018-09-24T04:56:31.665Z,99192.13
2018-09-24T04:59:05.503Z,99193.44
2018-09-24T05:01:39.408Z,99194.64
2018-09-24T05:04:13.407Z,99202.14
2018-09-24T05:06:47.344Z,99205.09
2018-09-24T05:09:21.158Z,99213.64
2018-09-24T05:11:54.926Z,99216.65
2018-09-24T05:14:28.791Z,99225.73
2018-09-24T05:17:02.716Z,99231.28
2018-09-24T05:19:36.610Z,99222.78
2018-09-24T05:22:10.430Z,99247.77
2018-09-24T05:24:44.294Z,99253.02
2018-09-24T05:27:18.278Z,99259.85
2018-09-24T05:29:52.139Z,99269.74
2018-09-24T05:32:26.152Z,99265.11
2018-09-24T05:35:00.133Z,99269.99
2018-09-24T05:37:34.040Z,99276.33
2018-09-24T05:40:07.916Z,99286.84
2018-09-24T05:42:41.745Z,99284.34
2018-09-24T05:45:15.791Z,99292.27
2018-09-24T05:47:49.752Z,99295.86
2018-09-24T05:50:23.694Z,99298.94
2018-09-24T05:52:57.727Z,99301.06
2018-09-24T05:55:31.479Z,99314.29
2018-09-24T05:58:05.362Z,99320.38
2018-09-24T06:00:39.267Z,99315.91
2018-09-24T06:03:13.251Z,99326.94
2018-09-24T06:05:47.176Z,99329.90
2018-09-24T06:08:20.998Z,99328.81
2018-09-24T06:10:55.039Z,99338.16
2018-09-24T06:13:29.023Z,99340.58
2018-09-24T06:16:02.856Z,99347.50
2018-09-24T06:18:36.814Z,99353.55
2018-09-24T06:21:10.610Z,99357.44
2018-09-24T06:23:44.626Z,99360.44
2018-09-24T06:26:18.567Z,99363.91
2018-09-24T06:28:52.547Z,99369.13
2018-09-24T06:31:26.395Z,99375.17
2018-09-24T06:34:00.116Z,99376.34
2018-09-24T06:36:34.087Z,99383.19
2018-09-24T06:39:07.948Z,99385.94
2018-09-24T06:41:41.794Z,99379.30
2018-09-24T06:44:15.655Z,99385.81
2018-09-24T06:46:49.578Z,99387.46
2018-09-24T06:49:23.467Z,99387.77
2018-09-24T06:51:57.732Z,99398.78
2018-09-24T06:54:31.867Z,99400.66
2018-09-24T06:57:05.859Z,99407.67
2018-09-24T06:59:39.951Z,99412.54
2018-09-24T07:02:13.766Z,99410.08
2018-09-24T07:04:47.656Z,99420.78
2018-09-24T07:07:21.452Z,99431.02
2018-09-24T07:09:55.300Z,99435.25
2018-09-24T07:12:29.297Z,99436.52
2018-09-24T07:15:03.171Z,99442.94
2018-09-24T07:17:37.023Z,99452.87
2018-09-24T07:20:11.025Z,99451.44
2018-09-24T07:22:44.868Z,99453.02
2018-09-24T07:25:18.729Z,99452.11
2018-09-24T07:27:52.612Z,99464.00
2018-09-24T07:30:26.539Z,99461.28
2018-09-24T07:33:00.353Z,99466.64
2018-09-24T07:35:34.268Z,99464.22
2018-09-24T07:38:08.261Z,99470.11
2018-09-24T07:40:42.204Z,99475.56
2018-09-24T07:43:16.120Z,99481.68
2018-09-24T07:45:49.922Z,99484.92
2018-09-24T07:48:23.658Z,99493.36
2018-09-24T07:50:57.694Z,99491.33
2018-09-24T07:53:31.605Z,99494.94
2018-09-24T07:56:05.575Z,99494.52
2018-09-24T07:58:39.567Z,99497.87
2018-09-24T08:01:13.521Z,99504.42
2018-09-24T08:03:47.340Z,99510.85
2018-09-24T08:06:21.341Z,99513.83
2018-09-24T08:08:55.223Z,99508.02
2018-09-24T08:11:29.177Z,99516.16
2018-09-24T08:14:03.039Z,99516.07
2018-09-24T08:16:37.047Z,99526.27
2018-09-24T08:19:10.876Z,99518.84
2018-09-24T08:21:44.710Z,99523.44
2018-09-24T08:24:18.755Z,99530.83
2018-09-24T08:26:52.430Z,99534.59
2018-09-24T08:29:26.363Z,99537.67
2018-09-24T08:32:00.277Z,99539.78
2018-09-24T08:34:34.095Z,99543.66
2018-09-24T08:37:08.063Z,99541.34
2018-09-24T08:39:41.874Z,99548.88
2018-09-24T08:42:15.870Z,99544.11
2018-09-24T08:44:49.659Z,99544.45
2018-09-24T08:47:23.722Z,99546.38
2018-09-24T08:49:57.632Z,99550.97
2018-09-24T08:52:31.504Z,99551.16
2018-09-24T08:55:05.422Z,99550.98
2018-09-24T08:57:39.278Z,99551.84
2018-09-24T09:00:13.151Z,99561.28
2018-09-24T09:02:47.124Z,99565.78
2018-09-24T09:05:21.188Z,99566.31
2018-09-24T09:07:55.323Z,99555.85
2018-09-24T09:10:29.083Z,99560.11
2018-09-24T09:13:02.952Z,99568.33
2018-09-24T09:15:36.930Z,99563.41
2018-09-24T09:18:10.774Z,99570.23
2018-09-24T09:20:44.751Z,99576.72
2018-09-24T09:23:18.588Z,99577.05
2018-09-24T09:25:52.452Z,99568.67
2018-09-24T09:28:26.362Z,99568.97
2018-09-24T09:31:01.087Z,99568.53
2018-09-24T09:33:34.947Z,99570.79
2018-09-24T09:36:08.839Z,99570.05
2018-09-24T09:38:42.703Z,99573.92
2018-09-24T09:41:16.532Z,99580.52
2018-09-24T09:43:50.494Z,99572.79
2018-09-24T09:46:24.431Z,99570.84
2018-09-24T09:48:58.246Z,99575.14
2018-09-24T09:51:32.179Z,99565.45
2018-09-24T09:54:06.111Z,99573.23
2018-09-24T09:56:40.061Z,99576.45
2018-09-24T09:59:14.118Z,99579.41
2018-09-24T10:01:48.148Z,99577.03
2018-09-24T10:04:22.055Z,99580.23
2018-09-24T10:06:56.066Z,99572.19
2018-09-24T10:09:29.882Z,99569.94
2018-09-24T10:12:03.764Z,99570.49
2018-09-24T10:14:37.619Z,99569.25
2018-09-24T10:17:11.603Z,99569.91
2018-09-24T10:19:45.470Z,99573.18
2018-09-24T10:22:19.529Z,99573.45
2018-09-24T10:24:53.503Z,99565.77
2018-09-24T10:27:27.419Z,99568.03
2018-09-24T10:30:01.442Z,99562.55
2018-09-24T10:32:35.482Z,99574.22
2018-09-24T10:35:09.308Z,99563.41
2018-09-24T10:37:43.214Z,99565.36
2018-09-24T10:40:17.097Z,99570.83
2018-09-24T10:42:51.071Z,99578.27
2018-09-24T10:45:24.885Z,99564.97
2018-09-24T10:47:58.725Z,99559.98
2018-09-24T10:50:32.506Z,99563.76
2018-09-24T10:53:06.417Z,99568.35
2018-09-24T10:55:40.092Z,99572.88
2018-09-24T10:58:13.895Z,99577.66
2018-09-24T11:00:47.725Z,99569.10
2018-09-24T11:03:21.723Z,99568.13
2018-09-24T11:05:55.767Z,99570.57
2018-09-24T11:08:29.624Z,99572.27
2018-09-24T11:11:03.615Z,99566.84
2018-09-24T11:13:37.639Z,99564.55
2018-09-24T11:16:11.716Z,99567.73
2018-09-24T11:18:45.594Z,99566.98
2018-09-24T11:21:19.252Z,99569.08
2018-09-24T11:23:53.112Z,99574.78
2018-09-24T11:26:33.870Z,99532.77
2018-09-24T11:29:00.630Z,99570.74
2018-09-24T11:31:34.323Z,99570.62
2018-09-24T11:34:08.171Z,99569.94
2018-09-24T11:36:42.055Z,99564.27
2018-09-24T11:39:15.899Z,99555.20
2018-09-24T11:41:49.626Z,99554.83
2018-09-24T11:44:23.434Z,99547.84
2018-09-24T11:46:57.303Z,99552.27
2018-09-24T11:49:30.918Z,99555.38
2018-09-24T11:52:04.919Z,99553.44
2018-09-24T11:54:38.825Z,99553.37
2018-09-24T11:57:12.781Z,99550.00
2018-09-24T11:59:46.775Z,99547.77
2018-09-24T12:02:20.703Z,99551.70
2018-09-24T12:04:54.530Z,99545.80
2018-09-24T12:07:28.413Z,99546.55
2018-09-24T12:10:02.290Z,99551.05
2018-09-24T12:12:36.246Z,99549.25
2018-09-24T12:15:10.023Z,99545.36
2018-09-24T12:17:43.927Z,99537.39
2018-09-24T12:20:17.752Z,99540.83
2018-09-24T12:22:51.766Z,99535.31
2018-09-24T12:25:25.618Z,99538.81
2018-09-24T12:27:59.446Z,99543.94
2018-09-24T12:30:33.323Z,99536.08
2018-09-24T12:33:07.147Z,99541.39
2018-09-24T12:35:41.050Z,99533.16
2018-09-24T12:38:15.085Z,99544.92
2018-09-24T12:40:48.917Z,99533.90
2018-09-24T12:43:22.792Z,99530.22
2018-09-24T12:45:56.743Z,99531.61
2018-09-24T12:48:30.729Z,99531.88
2018-09-24T12:51:06.841Z,99531.29
2018-09-24T12:53:40.706Z,99528.05
2018-09-24T12:56:14.539Z,99525.58
2018-09-24T12:58:48.340Z,99519.53
2018-09-24T13:01:22.167Z,99521.27
2018-09-24T13:03:56.019Z,99521.82
2018-09-24T13:06:29.819Z,99521.42
2018-09-24T13:09:03.807Z,99523.50
2018-09-24T13:11:37.658Z,99522.55
2018-09-24T13:14:11.490Z,99517.82
2018-09-24T13:16:45.439Z,99520.70
2018-09-24T13:19:19.499Z,99521.08
2018-09-24T13:21:53.302Z,99520.08
2018-09-24T13:24:27.088Z,99510.94
2018-09-24T13:27:01.071Z,99513.59
2018-09-24T13:29:34.982Z,99513.27
2018-09-24T13:32:08.986Z,99509.84
2018-09-24T13:34:42.796Z,99517.09
2018-09-24T13:37:16.691Z,99515.16
2018-09-24T13:39:50.555Z,99515.94
2018-09-24T13:42:24.536Z,99510.22
2018-09-24T13:44:58.491Z,99517.70
2018-09-24T13:47:32.438Z,99530.58
2018-09-24T13:50:06.316Z,99518.57
2018-09-24T13:52:40.218Z,99525.75
2018-09-24T13:55:14.434Z,99523.32
2018-09-24T13:57:48.378Z,99521.41
2018-09-24T14:00:22.336Z,99524.54
2018-09-24T14:02:56.206Z,99522.84
2018-09-24T14:05:30.035Z,99525.97
2018-09-24T14:08:03.867Z,99516.91
2018-09-24T14:10:37.675Z,99512.03
2018-09-24T14:13:11.791Z,99514.80
2018-09-24T14:15:45.738Z,99508.24
2018-09-24T14:18:19.642Z,99510.88
2018-09-24T14:20:53.510Z,99520.32
2018-09-24T14:23:27.514Z,99509.78
2018-09-24T14:26:01.523Z,99499.84
2018-09-24T14:28:35.446Z,99500.90
2018-09-24T14:31:09.386Z,99492.57
2018-09-24T14:33:43.430Z,99500.84
2018-09-24T14:36:17.411Z,99498.59
2018-09-24T14:38:51.567Z,99498.48
2018-09-24T14:41:25.467Z,99499.98
2018-09-24T14:43:59.398Z,99499.11
2018-09-24T14:46:33.302Z,99497.53
2018-09-24T14:49:07.244Z,99504.29
2018-09-24T14:51:41.013Z,99491.17
2018-09-24T14:54:14.994Z,99495.16
2018-09-24T14:56:48.815Z,99499.55
2018-09-24T14:59:22.692Z,99490.99
2018-09-24T15:01:56.719Z,99488.00
2018-09-24T15:04:30.683Z,99486.31
2018-09-24T15:07:04.679Z,99484.52
2018-09-24T15:09:38.617Z,99485.99
2018-09-24T15:12:12.591Z,99488.77
2018-09-24T15:14:46.585Z,99489.09
2018-09-24T15:17:20.551Z,99495.38
2018-09-24T15:19:54.223Z,99497.02
2018-09-24T15:22:28.127Z,99497.48
2018-09-24T15:25:02.111Z,99486.72
2018-09-24T15:27:36.034Z,99499.95
2018-09-24T15:30:09.947Z,99496.93
2018-09-24T15:32:43.890Z,99499.68
2018-09-24T15:35:17.811Z,99496.39
2018-09-24T15:37:51.800Z,99494.14
2018-09-24T15:40:25.736Z,99494.52
2018-09-24T15:42:59.506Z,99491.73
2018-09-24T15:45:33.682Z,99493.45
2018-09-24T15:48:07.723Z,99491.40
2018-09-24T15:50:41.490Z,99499.02
2018-09-24T15:53:15.149Z,99497.78
2018-09-24T15:55:48.958Z,99490.56
2018-09-24T15:58:22.755Z,99494.92
2018-09-24T16:00:56.611Z,99489.24
2018-09-24T16:03:30.392Z,99490.00
2018-09-24T16:06:04.190Z,99494.34
2018-09-24T16:08:38.169Z,99503.27
2018-09-24T16:11:12.012Z,99503.72
2018-09-24T16:13:46.031Z,99502.41
2018-09-24T16:16:19.883Z,99510.30
2018-09-24T16:18:53.843Z,99505.42
2018-09-24T16:21:27.815Z,99504.83
2018-09-24T16:24:01.583Z,99509.53
2018-09-24T16:26:35.506Z,99509.55
2018-09-24T16:29:09.535Z,99520.02
2018-09-24T16:31:43.532Z,99520.92
2018-09-24T16:34:17.483Z,99521.52
2018-09-24T16:36:51.429Z,99518.88
2018-09-24T16:39:25.411Z,99520.20
2018-09-24T16:41:59.426Z,99517.00
2018-09-24T16:44:33.121Z,99522.48
2018-09-24T16:47:07.111Z,99533.47
2018-09-24T16:49:41.184Z,99530.70
2018-09-24T16:52:15.051Z,99535.70
2018-09-24T16:54:48.866Z,99539.23
2018-09-24T16:57:22.848Z,99538.75
2018-09-24T16:59:56.798Z,99543.35
2018-09-24T17:02:30.756Z,99540.13
2018-09-24T17:05:04.686Z,99541.34
2018-09-24T17:07:38.579Z,99545.14
2018-09-24T17:10:12.370Z,99544.25
2018-09-24T17:12:46.147Z,99543.52
2018-09-24T17:15:20.004Z,99550.97
2018-09-24T17:17:53.805Z,99551.75
2018-09-24T17:20:27.708Z,99555.78
2018-09-24T17:23:01.710Z,99564.90
2018-09-24T17:25:35.711Z,99563.64
2018-09-24T17:28:09.639Z,99565.76
2018-09-24T17:30:43.467Z,99563.64
2018-09-24T17:33:17.406Z,99576.83
2018-09-24T17:35:51.174Z,99571.52
2018-09-24T17:38:25.116Z,99582.90
2018-09-24T17:40:59.135Z,99586.25
2018-09-24T17:43:33.187Z,99585.16
2018-09-24T17:46:07.182Z,99584.73
2018-09-24T17:48:41.008Z,99591.50
2018-09-24T17:51:14.822Z,99587.78
2018-09-24T17:53:48.851Z,99597.95
2018-09-24T17:56:22.787Z,99602.25
2018-09-24T17:58:56.793Z,99602.50
2018-09-24T18:01:30.684Z,99603.56
2018-09-24T18:04:04.623Z,99600.19
2018-09-24T18:06:38.614Z,99607.71
2018-09-24T18:09:12.604Z,99614.75
2018-09-24T18:11:46.531Z,99613.61
2018-09-24T18:14:20.348Z,99615.84
2018-09-24T18:16:54.155Z,99620.53
2018-09-24T18:19:28.091Z,99623.09
2018-09-24T18:22:02.023Z,99618.45
2018-09-24T18:24:36.033Z,99617.23
2018-09-24T18:27:09.970Z,99620.01
2018-09-24T18:29:43.878Z,99625.89
2018-09-24T18:32:17.807Z,99632.09
2018-09-24T18:34:51.816Z,99637.38
2018-09-24T18:37:25.831Z,99644.23
2018-09-24T18:39:59.567Z,99645.89
2018-09-24T18:42:33.542Z,99648.42
2018-09-24T18:45:07.546Z,99657.25
2018-09-24T18:47:41.388Z,99658.14
2018-09-24T18:50:15.412Z,99657.36
2018-09-24T18:52:49.382Z,99659.58
2018-09-24T18:55:23.174Z,99664.75
2018-09-24T18:57:56.995Z,99665.34
2018-09-24T19:00:37.807Z,99662.48
2018-09-24T19:03:11.795Z,99667.80
2018-09-24T19:05:45.608Z,99661.55
2018-09-24T19:08:19.468Z,99679.05
2018-09-24T19:10:53.463Z,99681.80
2018-09-24T19:13:27.508Z,99686.85
2018-09-24T19:16:01.527Z,99683.84
2018-09-24T19:18:35.445Z,99690.19
2018-09-24T19:21:09.222Z,99686.63
2018-09-24T19:23:43.133Z,99687.94
2018-09-24T19:26:17.108Z,99693.17
2018-09-24T19:28:51.058Z,99687.86
2018-09-24T19:31:24.912Z,99691.67
2018-09-24T19:33:58.854Z,99687.27
2018-09-24T19:36:32.666Z,99688.37
2018-09-24T19:39:06.603Z,99691.67
2018-09-24T19:41:40.638Z,99693.39
2018-09-24T19:44:14.618Z,99694.52
2018-09-24T19:46:49.467Z,99703.89
2018-09-24T19:49:23.422Z,99703.16
2018-09-24T19:51:57.343Z,99697.13
2018-09-24T19:54:31.370Z,99702.64
2018-09-24T19:57:05.394Z,99705.17
2018-09-24T19:59:39.334Z,99709.54
2018-09-24T20:02:13.190Z,99707.64
2018-09-24T20:04:47.020Z,99707.95
2018-09-24T20:07:21.068Z,99708.48
2018-09-24T20:09:54.990Z,99708.75
2018-09-24T20:12:28.900Z,99706.33
2018-09-24T20:15:05.103Z,99706.00
2018-09-24T20:17:39.851Z,99710.59
2018-09-24T20:20:13.656Z,99711.72
2018-09-24T20:22:47.583Z,99719.16
2018-09-24T20:25:21.600Z,99716.12
2018-09-24T20:27:55.619Z,99714.41
2018-09-24T20:30:29.471Z,99716.73
2018-09-24T20:33:03.267Z,99715.09
2018-09-24T20:35:37.306Z,99717.84
2018-09-24T20:38:11.211Z,99719.48
2018-09-24T20:40:45.206Z,99717.87
2018-09-24T20:43:19.084Z,99720.31
2018-09-24T20:45:53.019Z,99719.22
2018-09-24T20:48:26.991Z,99723.14
2018-09-24T20:51:01.195Z,99725.92
2018-09-24T20:53:35.161Z,99729.78
2018-09-24T20:56:09.138Z,99730.91
2018-09-24T20:58:42.958Z,99734.74
2018-09-24T21:01:16.910Z,99739.72
2018-09-24T21:03:50.741Z,99735.89
2018-09-24T21:06:24.671Z,99737.78
2018-09-24T21:08:58.674Z,99745.52
2018-09-24T21:11:32.592Z,99749.91
2018-09-24T21:14:06.547Z,99756.80
2018-09-24T21:16:40.499Z,99753.49
2018-09-24T21:19:14.342Z,99756.81
2018-09-24T21:21:48.244Z,99750.73
2018-09-24T21:24:22.239Z,99745.80
2018-09-24T21:26:56.079Z,99752.95
2018-09-24T21:29:29.999Z,99747.98
2018-09-24T21:32:03.835Z,99748.27
2018-09-24T21:34:37.826Z,99757.64
2018-09-24T21:37:11.626Z,99765.63
2018-09-24T21:39:45.590Z,99767.27
2018-09-24T21:42:19.467Z,99764.79
2018-09-24T21:44:53.308Z,99767.27
2018-09-24T21:47:27.134Z,99767.52
2018-09-24T21:50:00.976Z,99772.20
2018-09-24T21:52:34.789Z,99776.62
2018-09-24T21:55:08.763Z,99769.44
2018-09-24T21:57:42.548Z,99774.41
2018-09-24T22:00:16.498Z,99776.58
2018-09-24T22:02:50.346Z,99780.13
2018-09-24T22:05:24.360Z,99781.23
2018-09-24T22:07:58.175Z,99782.61
2018-09-24T22:10:32.019Z,99783.45
2018-09-24T22:13:05.891Z,99788.42
2018-09-24T22:15:39.862Z,99792.80
2018-09-24T22:18:13.845Z,99796.39
2018-09-24T22:20:47.700Z,99795.00
2018-09-24T22:23:21.572Z,99794.18
2018-09-24T22:25:55.548Z,99804.66
2018-09-24T22:28:29.550Z,99796.13
2018-09-24T22:31:03.559Z,99798.86
2018-09-24T22:33:37.405Z,99798.36
2018-09-24T22:36:11.386Z,99795.92
2018-09-24T22:38:45.343Z,99798.67
2018-09-24T22:41:19.166Z,99808.31
2018-09-24T22:43:53.076Z,99814.06
2018-09-24T22:46:26.988Z,99818.73
2018-09-24T22:49:00.906Z,99813.20
2018-09-24T22:51:34.738Z,99814.04
2018-09-24T22:54:08.627Z,99819.24
2018-09-24T22:56:42.344Z,99818.11
2018-09-24T22:59:16.322Z,99818.85
2018-09-24T23:01:50.172Z,99822.48
2018-09-24T23:04:24.058Z,99816.21
2018-09-24T23:06:57.939Z,99812.64
2018-09-24T23:09:31.947Z,99810.70
2018-09-24T23:12:05.814Z,99811.27
2018-09-24T23:14:39.671Z,99815.72
2018-09-24T23:17:13.620Z,99822.86
2018-09-24T23:19:47.551Z,99824.17
2018-09-24T23:22:21.431Z,99819.48
2018-09-24T23:24:55.283Z,99826.13
2018-09-24T23:27:29.711Z,99823.91
2018-09-24T23:30:03.543Z,99822.78
2018-09-24T23:32:38.517Z,99824.14
2018-09-24T23:35:12.376Z,99826.89
2018-09-24T23:37:46.094Z,99831.35
2018-09-24T23:40:19.924Z,99836.87
2018-09-24T23:42:53.919Z,99839.00
2018-09-24T23:45:27.727Z,99839.79
2018-09-24T23:48:01.571Z,99841.95
2018-09-24T23:50:35.395Z,99843.63
2018-09-24T23:53:09.418Z,99847.45
2018-09-24T23:55:43.191Z,99848.23
2018-09-24T23:58:17.202Z,99853.98
